Terminal Aerodrome Forecast
Issued by NWS

Home | Current Version | Previous Version | Graphics & Text | Print | Product List | Glossary On
Versions: 1 2 3 4 5 6 7 8 9 10 11 12 13 14 15 16 17
438
FTUS41 KCLE 030523
TAFFDY
TAF
KFDY 030523Z 0306/0406 17018G28KT 5SM -SHRA SCT035 OVC050
      WS020/20060KT
      TEMPO 0306/0309 3SM -SHRA SCT008 OVC015
     FM030900 20018G30KT P6SM VCSH SCT025 OVC035
     FM031400 23018G30KT P6SM SCT025 OVC035
     FM040000 25015G25KT P6SM OVC025=

USA.gov is the U.S. government's official web portal to all federal, state and local government web resources and services.